x

Dunkirk, Ny (dbln6) Weather Station

5:00pm - Sun 14th Feb 2016 All times are CST. -6 hours from GMT.

  • Wind
    14mph, 15mph gusts
  • Air Temp 13°f
  • Sea Pressure 1030.8mb
  • Dunkirk, Ny
  • Dunkirk, Ny

More Historic Weather Station data

Upgrade to MSW Pro to gain access to the past 30 days of data for over 8000 Wavebouys and Weather Stations around the globe.

Join Pro

Comparision Forecast

View Surf forecast
   
Sun 02/14 5:00pm 14 15 mph 1030.8mb 13f
4:00pm 10 13 mph 1031.3mb 12f
3:00pm 11 13 mph 1031.7mb 11f
2:00pm 7 9 mph 1032.3mb 10f
1:00pm 7 8 mph 1032.6mb 9f
12:00pm 5 7 mph 1033.6mb 8f
11:00am 5 8 mph 1034.7mb 7f
10:00am 1 3 mph 1034.7mb 6f
9:00am 5 6 mph 1034.7mb 5f
8:00am 7 8 mph 1034.8mb 2f
7:00am 6 8 mph 1034.8mb 1f
6:00am 5 7 mph 1034.6mb -
5:00am 10 13 mph 1034.2mb -
4:00am 9 10 mph 1033.8mb -
3:00am 13 15 mph 1033mb 1f
2:00am 11 15 mph 1032.5mb 5f
1:00am 16 17 mph 1032mb 5f
12:00am 14 17 mph 1032.3mb 6f
Sat 02/13 11:00pm 16 18 mph 1031.5mb 6f
10:00pm 21 23 mph 1031.1mb 6f
9:00pm 17 24 mph 1031.1mb 7f
8:00pm 24 29 mph 1030mb 8f
7:00pm 23 28 mph 1029.9mb 8f
6:00pm 22 31 mph 1029.7mb 9f
5:00pm 32 36 mph 1028mb 9f
4:00pm 25 31 mph 1028.2mb 8f
3:00pm 28 31 mph 1027.9mb 7f
2:00pm 31 36 mph 1027.1mb 7f
1:00pm 21 24 mph 1028.2mb 6f
12:00pm 23 30 mph 1028.1mb 4f
11:00am 22 26 mph 1028.5mb 3f
10:00am 24 29 mph 1028.1mb 3f
9:00am 26 31 mph 1027.5mb 2f
8:00am 30 37 mph 1026.4mb 3f
7:00am 28 32 mph 1025.8mb 4f
6:00am 32 37 mph 1023.8mb 5f
5:00am 33 39 mph 1021.8mb 7f
4:00am 31 38 mph 1020.4mb 9f
3:00am 25 29 mph 1019.8mb 12f
2:00am 29 33 mph 1018.1mb 13f
1:00am 26 30 mph 1017.1mb 16f
12:00am 36 39 mph 1015mb 17f
Fri 02/12 11:00pm 31 36 mph 1015.2mb 16f
10:00pm 32 38 mph 1013.4mb 18f
9:00pm 29 32 mph 1012.5mb 20f
8:00pm 24 29 mph 1012mb 22f
7:00pm 29 31 mph 1010.9mb 23f
6:00pm 30 32 mph 1010.7mb 23f
5:00pm 18 28 mph 1011.9mb 20f
4:00pm 17 25 mph 1011.5mb 22f
3:00pm 14 20 mph 1012.4mb 23f
2:00pm 28 34 mph 1011.8mb 24f
1:00pm 30 33 mph 1012.6mb 23f
12:00pm 14 21 mph 1014.8mb 23f
11:00am 13 17 mph 1016.1mb 22f
10:00am 10 18 mph 1017.3mb 21f
9:00am 9 15 mph 1017.8mb 19f
8:00am 10 18 mph 1018.8mb 17f
7:00am 9 15 mph 1019.6mb 15f
6:00am 9 15 mph 1020.1mb 15f
5:00am 10 16 mph 1020.2mb 15f
4:00am 7 11 mph 1020.4mb 16f
3:00am 9 14 mph 1020.8mb 16f
2:00am 9 14 mph 1022.1mb 16f
1:00am 15 20 mph 1022.4mb 19f
12:00am 20 23 mph 1023.1mb 19f
Thu 02/11 11:00pm 23 26 mph 1023.4mb 19f
10:00pm 22 26 mph 1023.8mb 18f
9:00pm 18 25 mph 1024mb 17f
8:00pm 18 21 mph 1023.9mb 17f
7:00pm 26 30 mph 1022.9mb 18f
6:00pm 29 31 mph 1022.2mb 18f
5:00pm 24 30 mph 1021.9mb 18f
4:00pm 25 33 mph 1021.1mb 17f
3:00pm 29 32 mph 1019.9mb 17f
2:00pm 26 32 mph 1019.3mb 17f
1:00pm 28 32 mph 1018.8mb 16f
12:00pm 23 28 mph 1019.2mb 15f
11:00am 24 29 mph 1019.2mb 14f
10:00am 22 25 mph 1018.9mb 13f
9:00am 25 29 mph 1017.8mb 13f
8:00am 29 32 mph 1016.6mb 13f
7:00am 29 34 mph 1015.6mb 13f
6:00am 30 36 mph 1014.5mb 13f
5:00am 31 34 mph 1013.2mb 15f
4:00am 33 37 mph 1011.7mb 16f
3:00am 31 37 mph 1011mb 17f
2:00am 36 40 mph 1009.8mb 18f
1:00am 34 40 mph 1009.5mb 19f